createdAt,value
2023-05-05T00:01:35.852Z,7.82
2023-05-05T00:04:02.747Z,8.13
2023-05-05T00:06:29.670Z,8.50
2023-05-05T00:08:56.457Z,8.40
2023-05-05T00:11:23.392Z,10.00
2023-05-05T00:13:51.529Z,8.75
2023-05-05T00:16:18.486Z,9.68
2023-05-05T00:18:47.411Z,9.85
2023-05-05T00:21:14.368Z,9.68
2023-05-05T00:23:41.205Z,10.45
2023-05-05T00:26:08.054Z,11.68
2023-05-05T00:28:34.937Z,11.25
2023-05-05T00:31:01.956Z,11.55
2023-05-05T00:33:28.925Z,9.82
2023-05-05T00:35:57.168Z,10.45
2023-05-05T00:38:24.123Z,10.90
2023-05-05T00:40:50.975Z,9.32
2023-05-05T00:43:17.797Z,10.18
2023-05-05T00:45:47.816Z,10.05
2023-05-05T00:48:17.129Z,11.45
2023-05-05T00:50:45.092Z,11.43
2023-05-05T00:53:13.880Z,10.77
2023-05-05T00:55:41.610Z,11.52
2023-05-05T00:58:10.023Z,10.80
2023-05-05T01:00:37.011Z,11.73
2023-05-05T01:03:05.215Z,12.40
2023-05-05T01:05:41.829Z,10.98
2023-05-05T01:08:26.737Z,12.05
2023-05-05T01:10:58.045Z,12.60
2023-05-05T01:13:32.601Z,11.82
2023-05-05T01:16:09.207Z,11.70
2023-05-05T01:18:44.232Z,12.48
2023-05-05T01:21:15.475Z,12.13
2023-05-05T01:24:15.580Z,11.90
2023-05-05T01:26:59.239Z,12.20
2023-05-05T01:29:45.181Z,12.98
2023-05-05T01:32:15.959Z,12.27
2023-05-05T01:34:53.199Z,11.60
2023-05-05T01:37:27.112Z,12.80
2023-05-05T01:42:24.216Z,11.63
2023-05-05T01:44:53.190Z,13.88
2023-05-05T01:47:23.998Z,12.75
2023-05-05T01:49:52.420Z,14.70
2023-05-05T01:52:19.984Z,13.98
2023-05-05T01:54:48.039Z,13.77
2023-05-05T01:57:16.628Z,15.02
2023-05-05T01:59:43.564Z,14.50
2023-05-05T02:02:13.110Z,13.90
2023-05-05T02:04:44.415Z,14.35
2023-05-05T02:07:13.219Z,14.68
2023-05-05T02:09:42.656Z,14.48
2023-05-05T02:12:10.618Z,14.75
2023-05-05T02:14:39.533Z,14.05
2023-05-05T02:17:06.964Z,14.10
2023-05-05T02:19:38.973Z,15.18
2023-05-05T02:22:07.434Z,14.18
2023-05-05T02:24:34.699Z,14.63
2023-05-05T02:27:06.290Z,14.30
2023-05-05T02:29:35.799Z,15.43
2023-05-05T02:32:06.133Z,14.90
2023-05-05T02:34:36.877Z,15.90
2023-05-05T02:37:07.286Z,16.63
2023-05-05T02:39:41.865Z,16.35
2023-05-05T02:42:11.028Z,15.30
2023-05-05T02:44:41.854Z,14.98
2023-05-05T02:47:08.955Z,15.85
2023-05-05T02:49:35.784Z,14.40
2023-05-05T02:52:02.804Z,14.02
2023-05-05T02:54:32.679Z,14.18
2023-05-05T02:57:00.621Z,15.18
2023-05-05T02:59:36.714Z,15.02
2023-05-05T03:02:15.785Z,14.45
2023-05-05T03:04:46.377Z,15.05
2023-05-05T03:07:16.056Z,14.60
2023-05-05T03:09:50.965Z,15.68
2023-05-05T03:12:22.408Z,14.85
2023-05-05T03:14:54.306Z,14.93
2023-05-05T03:17:22.900Z,16.42
2023-05-05T03:19:50.697Z,15.98
2023-05-05T03:22:18.036Z,15.80
2023-05-05T03:24:50.247Z,16.75
2023-05-05T03:27:17.042Z,16.05
2023-05-05T03:29:43.882Z,16.33
2023-05-05T03:32:10.799Z,16.08
2023-05-05T03:34:37.864Z,16.52
2023-05-05T03:37:04.745Z,16.20
2023-05-05T03:39:31.816Z,16.48
2023-05-05T03:42:00.055Z,16.23
2023-05-05T03:44:27.055Z,15.80
2023-05-05T03:46:53.837Z,17.88
2023-05-05T03:49:20.633Z,17.50
2023-05-05T03:51:47.660Z,17.35
2023-05-05T03:54:14.662Z,18.27
2023-05-05T03:56:41.500Z,16.60
2023-05-05T03:59:10.115Z,17.13
2023-05-05T04:01:37.008Z,16.83
2023-05-05T04:04:04.242Z,17.77
2023-05-05T04:06:32.155Z,17.35
2023-05-05T04:08:58.996Z,17.90
2023-05-05T04:11:26.334Z,17.63
2023-05-05T04:13:53.204Z,17.23
2023-05-05T04:16:21.568Z,18.85
2023-05-05T04:18:48.523Z,18.92
2023-05-05T04:21:15.429Z,19.15
2023-05-05T04:23:42.257Z,21.00
2023-05-05T04:26:09.023Z,25.33
2023-05-05T04:28:35.924Z,23.75
2023-05-05T04:31:05.298Z,23.75
2023-05-05T04:33:33.564Z,21.77
2023-05-05T04:36:00.482Z,26.33
2023-05-05T04:38:27.667Z,27.48
2023-05-05T04:40:54.564Z,28.80
2023-05-05T04:43:21.469Z,30.13
2023-05-05T04:45:55.116Z,27.60
2023-05-05T04:48:22.099Z,23.15
2023-05-05T04:50:51.466Z,20.60
2023-05-05T04:53:18.328Z,19.23
2023-05-05T04:55:45.173Z,19.17
2023-05-05T04:58:12.010Z,19.75
2023-05-05T05:00:38.886Z,17.73
2023-05-05T05:03:05.919Z,18.65
2023-05-05T05:05:32.930Z,22.98
2023-05-05T05:08:01.211Z,21.40
2023-05-05T05:10:28.749Z,17.80
2023-05-05T05:12:55.854Z,18.80
2023-05-05T05:15:22.816Z,17.50
2023-05-05T05:17:49.858Z,16.40
2023-05-05T05:20:16.777Z,16.92
2023-05-05T05:22:43.684Z,16.73
2023-05-05T05:25:11.952Z,16.75
2023-05-05T05:27:38.784Z,15.80
2023-05-05T05:30:06.814Z,17.95
2023-05-05T05:32:34.128Z,17.10
2023-05-05T05:35:01.292Z,16.35
2023-05-05T05:37:29.287Z,16.13
2023-05-05T05:39:57.095Z,16.58
2023-05-05T05:42:25.420Z,14.77
2023-05-05T05:44:52.273Z,14.27
2023-05-05T05:47:19.228Z,13.32
2023-05-05T05:49:46.245Z,12.50
2023-05-05T05:52:13.165Z,12.80
2023-05-05T05:54:40.034Z,13.15
2023-05-05T05:57:07.041Z,12.15
2023-05-05T05:59:35.318Z,12.25
2023-05-05T06:02:02.297Z,11.38
2023-05-05T06:04:29.308Z,11.75
2023-05-05T06:06:56.248Z,11.27
2023-05-05T06:09:23.161Z,11.30
2023-05-05T06:11:49.962Z,10.75
2023-05-05T06:14:18.152Z,18.05
2023-05-05T06:16:47.728Z,12.82
2023-05-05T06:19:14.624Z,11.10
2023-05-05T06:21:41.600Z,10.27
2023-05-05T06:24:08.482Z,10.23
2023-05-05T06:26:35.359Z,9.98
2023-05-05T06:29:02.222Z,10.68
2023-05-05T06:31:29.315Z,10.32
2023-05-05T06:33:57.605Z,11.60
2023-05-05T06:36:24.653Z,10.95
2023-05-05T06:38:51.655Z,10.27
2023-05-05T06:41:18.556Z,10.25
2023-05-05T06:43:45.661Z,10.70
2023-05-05T06:46:12.499Z,9.95
2023-05-05T06:48:39.530Z,12.68
2023-05-05T06:51:09.816Z,15.15
2023-05-05T06:53:36.674Z,13.13
2023-05-05T06:56:03.747Z,10.65
2023-05-05T06:58:31.656Z,11.65
2023-05-05T07:00:58.604Z,15.80
2023-05-05T07:03:26.867Z,13.18
2023-05-05T07:05:55.154Z,12.70
2023-05-05T07:08:23.369Z,10.27
2023-05-05T07:10:50.177Z,10.38
2023-05-05T07:13:17.514Z,11.10
2023-05-05T07:15:46.526Z,11.38
2023-05-05T07:18:13.580Z,10.40
2023-05-05T07:20:40.597Z,9.25
2023-05-05T07:23:07.618Z,10.18
2023-05-05T07:25:35.973Z,10.10
2023-05-05T07:28:03.113Z,9.23
2023-05-05T07:30:30.206Z,9.18
2023-05-05T07:32:57.250Z,10.32
2023-05-05T07:35:24.358Z,9.93
2023-05-05T07:37:54.110Z,8.88
2023-05-05T07:40:21.540Z,8.20
2023-05-05T07:42:52.567Z,9.32
2023-05-05T07:45:19.618Z,8.02
2023-05-05T07:47:46.595Z,8.20
2023-05-05T07:50:13.586Z,8.80
2023-05-05T07:55:10.599Z,7.70
2023-05-05T07:57:37.668Z,7.95
2023-05-05T08:00:07.493Z,8.52
2023-05-05T08:02:34.597Z,8.10
2023-05-05T08:05:01.461Z,8.43
2023-05-05T08:07:28.273Z,7.40
2023-05-05T08:09:55.290Z,6.93
2023-05-05T08:12:22.171Z,6.95
2023-05-05T08:14:49.086Z,6.60
2023-05-05T08:17:17.393Z,7.20
2023-05-05T08:19:44.208Z,7.43
2023-05-05T08:22:11.056Z,7.00
2023-05-05T08:24:37.932Z,7.03
2023-05-05T08:27:04.766Z,6.47
2023-05-05T08:29:31.555Z,6.78
2023-05-05T08:31:58.524Z,6.05
2023-05-05T08:34:26.850Z,5.53
2023-05-05T08:36:53.841Z,5.05
2023-05-05T08:39:20.686Z,4.53
2023-05-05T08:41:47.680Z,5.60
2023-05-05T08:44:14.612Z,5.07
2023-05-05T08:46:42.465Z,5.90
2023-05-05T08:49:16.092Z,4.47
2023-05-05T08:54:19.344Z,5.70
2023-05-05T08:59:14.695Z,5.55
2023-05-05T09:01:49.762Z,5.97
2023-05-05T09:04:19.051Z,6.07
2023-05-05T09:07:05.761Z,5.72
2023-05-05T09:09:40.402Z,6.57
2023-05-05T09:12:07.463Z,5.93
2023-05-05T09:14:46.510Z,6.22
2023-05-05T09:17:28.419Z,7.32
2023-05-05T09:20:16.375Z,6.82
2023-05-05T09:22:50.787Z,7.25
2023-05-05T09:25:23.172Z,5.68
2023-05-05T09:27:54.909Z,5.60
2023-05-05T09:30:36.098Z,5.72
2023-05-05T09:33:08.850Z,6.15
2023-05-05T09:36:05.204Z,6.40
2023-05-05T09:38:36.913Z,5.78
2023-05-05T09:41:09.006Z,7.07
2023-05-05T09:44:00.810Z,6.68
2023-05-05T09:46:31.191Z,6.50
2023-05-05T09:49:12.383Z,8.35
2023-05-05T09:51:40.484Z,6.63
2023-05-05T09:54:09.214Z,8.25
2023-05-05T09:56:42.824Z,8.40
2023-05-05T09:59:10.436Z,9.73
2023-05-05T10:01:37.930Z,10.95
2023-05-05T10:04:05.144Z,9.20
2023-05-05T10:06:42.989Z,9.02
2023-05-05T10:09:11.238Z,8.55
2023-05-05T10:11:39.621Z,8.20
2023-05-05T10:14:07.830Z,7.07
2023-05-05T10:16:36.198Z,7.60
2023-05-05T10:19:04.430Z,7.40
2023-05-05T10:21:37.446Z,6.25
2023-05-05T10:24:09.450Z,7.05
2023-05-05T10:26:40.862Z,7.72
2023-05-05T10:29:13.586Z,6.05
2023-05-05T10:31:47.158Z,5.77
2023-05-05T10:36:45.536Z,4.50
2023-05-05T10:39:15.689Z,4.82
2023-05-05T10:41:44.729Z,4.25
2023-05-05T10:44:12.272Z,4.80
2023-05-05T10:46:39.953Z,3.95
2023-05-05T10:49:15.548Z,4.68
2023-05-05T10:51:50.025Z,5.30
2023-05-05T10:54:24.757Z,4.85
2023-05-05T10:56:54.724Z,5.47
2023-05-05T10:59:41.503Z,4.97
2023-05-05T11:02:27.315Z,5.38
2023-05-05T11:05:14.444Z,5.97
2023-05-05T11:07:42.012Z,5.85
2023-05-05T11:10:10.696Z,6.25
2023-05-05T11:13:15.359Z,5.93
2023-05-05T11:15:43.699Z,5.70
2023-05-05T11:18:34.018Z,5.70
2023-05-05T11:21:15.545Z,4.65
2023-05-05T11:23:47.545Z,4.47
2023-05-05T11:26:15.698Z,4.28
2023-05-05T11:29:02.611Z,3.67
2023-05-05T11:31:31.839Z,4.28
2023-05-05T11:34:25.003Z,3.97
2023-05-05T11:36:53.131Z,3.53
2023-05-05T11:39:25.311Z,4.03
2023-05-05T11:42:17.323Z,3.90
2023-05-05T11:44:44.300Z,4.70
2023-05-05T11:47:31.814Z,4.50
2023-05-05T11:49:59.433Z,4.95
2023-05-05T11:52:27.336Z,4.57
2023-05-05T11:54:59.773Z,3.97
2023-05-05T11:57:30.104Z,3.53
2023-05-05T12:00:00.542Z,3.17
2023-05-05T12:02:29.540Z,3.90
2023-05-05T12:04:59.173Z,3.33
2023-05-05T12:07:27.413Z,3.47
2023-05-05T12:09:55.500Z,3.50
2023-05-05T12:12:34.565Z,2.70
2023-05-05T12:15:01.507Z,3.13
2023-05-05T12:17:40.161Z,2.50
2023-05-05T12:20:10.590Z,3.40
2023-05-05T12:22:38.260Z,2.72
2023-05-05T12:25:07.045Z,3.10
2023-05-05T12:27:35.458Z,2.72
2023-05-05T12:30:14.510Z,2.85
2023-05-05T12:32:41.842Z,2.50
2023-05-05T12:35:11.209Z,1.90
2023-05-05T12:41:46.333Z,2.35
2023-05-05T12:45:59.757Z,2.17
2023-05-05T12:48:26.702Z,1.70
2023-05-05T12:51:43.552Z,1.88
2023-05-05T12:54:19.872Z,1.63
2023-05-05T12:56:47.732Z,1.95
2023-05-05T12:59:29.620Z,1.67
2023-05-05T13:01:58.468Z,1.85
2023-05-05T13:04:27.638Z,2.10
2023-05-05T13:07:11.875Z,1.45
2023-05-05T13:09:40.571Z,1.52
2023-05-05T13:12:12.442Z,1.17
2023-05-05T13:14:39.596Z,1.58
2023-05-05T13:17:06.898Z,1.65
2023-05-05T13:19:45.614Z,1.10
2023-05-05T13:22:16.007Z,1.45
2023-05-05T13:24:51.815Z,1.25
2023-05-05T13:27:20.094Z,1.10
2023-05-05T13:29:46.882Z,1.33
2023-05-05T13:32:13.753Z,0.90
2023-05-05T13:34:41.546Z,1.05
2023-05-05T13:37:08.813Z,1.30
2023-05-05T13:39:37.022Z,1.27
2023-05-05T13:42:05.587Z,0.90
2023-05-05T13:44:32.581Z,0.77
2023-05-05T13:46:59.573Z,0.70
2023-05-05T13:49:27.216Z,0.90
2023-05-05T13:51:55.228Z,1.02
2023-05-05T13:54:22.149Z,0.85
2023-05-05T13:56:49.074Z,0.98
2023-05-05T13:59:17.438Z,1.13
2023-05-05T14:01:44.224Z,1.08
2023-05-05T14:04:11.266Z,1.00
2023-05-05T14:06:38.211Z,0.93
2023-05-05T14:09:08.051Z,1.17
2023-05-05T14:11:35.054Z,1.10
2023-05-05T14:14:01.950Z,1.33
2023-05-05T14:16:30.389Z,1.15
2023-05-05T14:18:57.301Z,1.42
2023-05-05T14:21:24.225Z,2.30
2023-05-05T14:23:51.088Z,1.42
2023-05-05T14:26:17.994Z,2.00
2023-05-05T14:28:46.749Z,1.40
2023-05-05T14:31:15.259Z,1.58
2023-05-05T14:33:43.421Z,1.80
2023-05-05T14:36:10.329Z,1.35
2023-05-05T14:38:38.942Z,1.88
2023-05-05T14:41:05.975Z,1.50
2023-05-05T14:43:42.214Z,1.02
2023-05-05T14:46:26.344Z,1.48
2023-05-05T14:48:54.690Z,1.42
2023-05-05T14:54:38.290Z,1.40
2023-05-05T14:57:06.771Z,1.42
2023-05-05T14:59:33.684Z,1.20
2023-05-05T15:02:25.742Z,1.48
2023-05-05T15:04:54.048Z,1.38
2023-05-05T15:07:33.465Z,1.55
2023-05-05T15:10:00.363Z,1.63
2023-05-05T15:16:21.647Z,1.10
2023-05-05T15:18:54.124Z,1.60
2023-05-05T15:21:22.394Z,1.58
2023-05-05T15:23:49.212Z,1.40
2023-05-05T15:26:16.097Z,1.27
2023-05-05T15:28:43.007Z,1.33
2023-05-05T15:31:10.166Z,1.40
2023-05-05T15:33:37.106Z,1.65
2023-05-05T15:36:04.207Z,1.30
2023-05-05T15:39:01.153Z,1.52
2023-05-05T15:46:41.999Z,1.55
2023-05-05T15:49:10.744Z,1.30
2023-05-05T15:52:50.082Z,1.83
2023-05-05T15:55:39.224Z,1.38
2023-05-05T15:58:06.044Z,1.55
2023-05-05T16:01:04.470Z,1.75
2023-05-05T16:06:32.454Z,1.27
2023-05-05T16:08:59.378Z,1.60
2023-05-05T16:11:38.029Z,1.35
2023-05-05T16:14:06.259Z,1.23
2023-05-05T16:16:33.127Z,1.52
2023-05-05T16:19:29.661Z,1.00
2023-05-05T16:22:07.768Z,0.95
2023-05-05T16:25:19.386Z,1.30
2023-05-05T16:35:21.074Z,1.20
2023-05-05T16:37:54.326Z,1.45
2023-05-05T16:40:31.441Z,1.50
2023-05-05T16:43:07.659Z,1.50
2023-05-05T16:48:34.610Z,1.30
2023-05-05T16:51:25.733Z,1.27
2023-05-05T17:01:35.747Z,1.38
2023-05-05T17:04:02.895Z,1.17
2023-05-05T17:06:32.010Z,1.00
2023-05-05T17:08:59.197Z,1.30
2023-05-05T17:11:26.714Z,1.00
2023-05-05T17:13:53.792Z,1.10
2023-05-05T17:16:20.859Z,1.10
2023-05-05T17:18:49.209Z,1.42
2023-05-05T17:21:16.089Z,1.17
2023-05-05T17:23:42.932Z,1.65
2023-05-05T17:26:11.994Z,1.08
2023-05-05T17:28:38.821Z,1.20
2023-05-05T17:31:06.105Z,1.50
2023-05-05T17:33:32.947Z,2.10
2023-05-05T17:36:01.315Z,1.70
2023-05-05T17:38:28.354Z,1.70
2023-05-05T17:40:55.174Z,2.10
2023-05-05T17:43:22.197Z,2.22
2023-05-05T17:45:49.171Z,2.38
2023-05-05T17:48:16.258Z,2.20
2023-05-05T17:50:43.612Z,2.70
2023-05-05T17:53:12.581Z,2.25
2023-05-05T17:55:39.576Z,2.17
2023-05-05T17:58:06.428Z,2.55
2023-05-05T18:00:33.310Z,2.33
2023-05-05T18:03:01.267Z,1.90
2023-05-05T18:05:28.239Z,2.20
2023-05-05T18:07:55.096Z,2.30
2023-05-05T18:10:23.338Z,1.70
2023-05-05T18:12:50.336Z,1.90
2023-05-05T18:15:17.168Z,1.90
2023-05-05T18:17:44.548Z,1.45
2023-05-05T18:20:11.980Z,1.55
2023-05-05T18:22:38.953Z,1.60
2023-05-05T18:25:07.973Z,1.52
2023-05-05T18:27:36.928Z,1.58
2023-05-05T18:30:04.888Z,1.40
2023-05-05T18:32:31.894Z,1.67
2023-05-05T18:34:58.866Z,1.27
2023-05-05T18:37:25.754Z,1.67
2023-05-05T18:39:52.624Z,1.38
2023-05-05T18:42:19.477Z,1.20
2023-05-05T18:44:47.793Z,1.48
2023-05-05T18:47:14.596Z,1.60
2023-05-05T18:49:41.443Z,1.75
2023-05-05T18:52:08.294Z,2.13
2023-05-05T18:54:37.473Z,1.70
2023-05-05T18:57:04.752Z,1.90
2023-05-05T18:59:31.781Z,1.60
2023-05-05T19:02:00.134Z,1.60
2023-05-05T19:04:31.326Z,1.50
2023-05-05T19:06:58.821Z,1.85
2023-05-05T19:09:26.137Z,1.70
2023-05-05T19:11:53.034Z,2.05
2023-05-05T19:14:19.974Z,1.50
2023-05-05T19:16:47.070Z,1.92
2023-05-05T19:19:15.363Z,1.80
2023-05-05T19:21:42.201Z,2.00
2023-05-05T19:24:09.745Z,1.90
2023-05-05T19:26:36.693Z,1.88
2023-05-05T19:29:03.678Z,2.15
2023-05-05T19:31:31.382Z,1.83
2023-05-05T19:34:00.752Z,1.63
2023-05-05T19:36:31.687Z,2.03
2023-05-05T19:39:00.600Z,2.42
2023-05-05T19:41:27.496Z,2.58
2023-05-05T19:43:54.383Z,2.40
2023-05-05T19:46:21.320Z,2.40
2023-05-05T19:48:48.724Z,2.33
2023-05-05T19:51:15.638Z,2.72
2023-05-05T19:53:43.996Z,2.55
2023-05-05T19:56:11.607Z,2.67
2023-05-05T19:58:53.751Z,2.33
2023-05-05T20:01:20.785Z,2.45
2023-05-05T20:03:47.802Z,3.75
2023-05-05T20:06:14.803Z,2.60
2023-05-05T20:08:43.112Z,2.60
2023-05-05T20:11:10.046Z,2.92
2023-05-05T20:13:38.242Z,3.15
2023-05-05T20:16:06.069Z,3.28
2023-05-05T20:18:33.237Z,3.20
2023-05-05T20:21:00.414Z,3.70
2023-05-05T20:23:27.717Z,3.13
2023-05-05T20:25:56.807Z,2.67
2023-05-05T20:28:23.968Z,2.53
2023-05-05T20:30:51.060Z,2.90
2023-05-05T20:33:18.001Z,3.17
2023-05-05T20:35:44.917Z,3.47
2023-05-05T20:38:11.846Z,3.90
2023-05-05T20:40:38.883Z,4.22
2023-05-05T20:43:07.307Z,3.85
2023-05-05T20:45:34.440Z,3.70
2023-05-05T20:48:01.832Z,4.00
2023-05-05T20:50:28.788Z,3.55
2023-05-05T20:52:55.826Z,4.45
2023-05-05T20:55:22.925Z,4.30
2023-05-05T20:57:49.778Z,3.70
2023-05-05T21:00:24.102Z,4.10
2023-05-05T21:02:51.011Z,4.05
2023-05-05T21:05:18.238Z,4.25
2023-05-05T21:07:45.341Z,3.38
2023-05-05T21:10:12.438Z,4.13
2023-05-05T21:12:40.498Z,4.28
2023-05-05T21:15:08.617Z,4.68
2023-05-05T21:17:37.097Z,5.10
2023-05-05T21:20:04.499Z,5.15
2023-05-05T21:22:31.456Z,5.00
2023-05-05T21:25:11.765Z,5.70
2023-05-05T21:27:38.667Z,5.93
2023-05-05T21:30:09.407Z,5.45
2023-05-05T21:32:39.434Z,5.03
2023-05-05T21:35:07.997Z,5.25
2023-05-05T21:37:36.666Z,5.30
2023-05-05T21:40:03.878Z,5.53
2023-05-05T21:42:30.965Z,5.93
2023-05-05T21:44:57.751Z,5.60
2023-05-05T21:47:24.948Z,5.78
2023-05-05T21:49:53.162Z,6.03
2023-05-05T21:52:20.098Z,6.38
2023-05-05T21:54:46.955Z,6.07
2023-05-05T21:57:13.817Z,5.85
2023-05-05T21:59:41.352Z,4.80
2023-05-05T22:02:08.185Z,6.13
2023-05-05T22:04:35.090Z,5.90
2023-05-05T22:07:03.324Z,6.18
2023-05-05T22:09:30.278Z,6.03
2023-05-05T22:11:57.510Z,5.40
2023-05-05T22:14:24.460Z,5.05
2023-05-05T22:16:51.398Z,5.72
2023-05-05T22:19:18.221Z,5.32
2023-05-05T22:21:45.090Z,5.63
2023-05-05T22:24:13.388Z,6.15
2023-05-05T22:26:43.364Z,5.50
2023-05-05T22:29:10.677Z,5.43
2023-05-05T22:31:37.799Z,6.55
2023-05-05T22:34:04.860Z,5.75
2023-05-05T22:36:31.838Z,5.00
2023-05-05T22:38:59.079Z,5.97
2023-05-05T22:41:27.296Z,6.03
2023-05-05T22:43:54.190Z,6.45
2023-05-05T22:46:21.062Z,6.82
2023-05-05T22:48:48.001Z,6.25
2023-05-05T22:51:14.856Z,6.63
2023-05-05T22:53:41.830Z,5.68
2023-05-05T22:56:08.772Z,5.75
2023-05-05T22:58:37.044Z,5.80
2023-05-05T23:01:04.200Z,5.38
2023-05-05T23:03:31.133Z,6.20
2023-05-05T23:05:57.999Z,5.35
2023-05-05T23:08:24.829Z,5.60
2023-05-05T23:10:51.695Z,6.30
2023-05-05T23:13:18.551Z,6.60
2023-05-05T23:15:46.926Z,6.47
2023-05-05T23:18:13.779Z,6.63
2023-05-05T23:20:40.793Z,7.18
2023-05-05T23:23:07.712Z,7.30
2023-05-05T23:25:34.616Z,6.63
2023-05-05T23:28:01.551Z,7.13
2023-05-05T23:30:28.662Z,7.10
2023-05-05T23:32:58.258Z,7.40
2023-05-05T23:35:26.540Z,6.50
2023-05-05T23:37:53.368Z,7.05
2023-05-05T23:40:20.404Z,6.90
2023-05-05T23:42:47.205Z,6.97
2023-05-05T23:45:14.070Z,7.95
2023-05-05T23:47:40.937Z,7.07
2023-05-05T23:50:10.036Z,7.72
2023-05-05T23:52:36.910Z,7.20
2023-05-05T23:55:04.196Z,7.70
2023-05-05T23:57:31.090Z,6.78
2023-05-05T23:59:58.370Z,8.00
